Time;durP1;ratioP1;P1;durP2;ratioP2;P2;SDS_P1;SDS_P2;PMS_P1;PMS_P2;Temp;Humidity;BMP_temperature;BMP_pressure;BME280_temperature;BME280_humidity;BME280_pressure;Samples;Min_cycle;Max_cycle;Signal;HPM_P1;HPM_P2
2022/06/01 00:01:10;;;;;;;4.40;4.00;;;12.90;93.90;;;;;;5098468;28;20429;-46
2022/06/01 00:03:38;;;;;;;4.43;3.73;;;12.80;93.80;;;;;;5098120;28;20863;-45
2022/06/01 00:06:04;;;;;;;4.83;4.43;;;12.80;94.00;;;;;;5098146;28;20411;-45
2022/06/01 00:08:30;;;;;;;4.80;4.40;;;12.80;94.00;;;;;;5097437;28;20429;-45
2022/06/01 00:10:57;;;;;;;4.17;3.77;;;12.80;94.10;;;;;;5096838;28;20425;-46
2022/06/01 00:13:23;;;;;;;4.83;3.90;;;12.80;94.20;;;;;;5097012;28;20719;-45
2022/06/01 00:15:49;;;;;;;4.60;4.20;;;12.70;94.10;;;;;;5098076;28;20488;-45
2022/06/01 00:18:15;;;;;;;7.00;4.50;;;12.70;94.10;;;;;;5097465;28;20466;-45
2022/06/01 00:20:41;;;;;;;6.83;4.27;;;12.70;94.20;;;;;;5098006;28;20188;-45
2022/06/01 00:23:07;;;;;;;4.10;3.50;;;12.70;94.10;;;;;;5097859;28;20485;-45
2022/06/01 00:25:33;;;;;;;4.10;3.70;;;12.70;94.10;;;;;;5097387;28;20445;-45
2022/06/01 00:27:59;;;;;;;4.50;4.03;;;12.70;94.00;;;;;;5097584;28;20317;-45
2022/06/01 00:30:26;;;;;;;4.80;4.40;;;12.70;93.90;;;;;;5097643;28;20451;-44
2022/06/01 00:32:52;;;;;;;4.77;4.27;;;12.70;94.00;;;;;;5097877;28;20411;-46
2022/06/01 00:35:21;;;;;;;4.73;4.17;;;12.60;94.00;;;;;;5098176;28;20470;-45
2022/06/01 00:37:47;;;;;;;4.77;4.37;;;12.60;94.10;;;;;;5097477;28;20502;-45
2022/06/01 00:40:14;;;;;;;4.67;4.10;;;12.60;94.30;;;;;;5097990;28;20530;-45
2022/06/01 00:42:42;;;;;;;4.47;4.07;;;12.60;94.40;;;;;;5098034;28;20439;-45
2022/06/01 00:45:10;;;;;;;4.10;3.80;;;12.60;94.40;;;;;;5097711;28;20853;-45
2022/06/01 00:47:36;;;;;;;5.13;4.30;;;12.60;94.60;;;;;;5098062;28;20422;-45
2022/06/01 00:50:16;;;;;;;4.77;4.37;;;12.50;94.50;;;;;;5097781;28;20422;-45
2022/06/01 00:52:46;;;;;;;5.37;4.87;;;12.50;94.40;;;;;;5097370;28;20188;-45
2022/06/01 00:55:32;;;;;;;4.90;4.40;;;12.40;94.50;;;;;;5096830;28;20431;-45
2022/06/01 00:58:08;;;;;;;4.57;4.20;;;12.40;94.70;;;;;;5096864;28;20442;-45
2022/06/01 01:00:35;;;;;;;4.47;4.07;;;12.30;94.70;;;;;;5097919;28;20430;-45
2022/06/01 01:03:04;;;;;;;4.83;4.33;;;12.30;94.80;;;;;;5096299;28;20415;-45
2022/06/01 01:05:32;;;;;;;4.57;4.17;;;12.20;94.80;;;;;;5097738;28;20787;-45
2022/06/01 01:07:59;;;;;;;4.63;3.87;;;12.20;94.90;;;;;;5096325;28;20423;-45
2022/06/01 01:10:25;;;;;;;5.10;4.70;;;12.20;94.90;;;;;;5096297;28;20422;-45
2022/06/01 01:12:56;;;;;;;4.70;4.30;;;12.20;95.00;;;;;;5096044;28;20411;-45
2022/06/01 01:15:24;;;;;;;3.73;3.43;;;12.20;95.00;;;;;;5097709;28;20190;-45
2022/06/01 01:17:50;;;;;;;4.73;4.33;;;12.20;95.10;;;;;;5096988;28;20407;-45
2022/06/01 01:20:16;;;;;;;4.80;4.30;;;12.20;95.20;;;;;;5096971;28;20422;-45
2022/06/01 01:26:06;;;;;;;4.70;4.20;;;12.20;95.30;;;;;;5100734;28;20448;-45
2022/06/01 01:28:33;;;;;;;4.47;4.07;;;12.20;95.20;;;;;;5100823;28;20502;-45
2022/06/01 01:31:10;;;;;;;6.13;3.63;;;12.20;95.30;;;;;;5099824;28;20427;-45
2022/06/01 01:33:36;;;;;;;4.53;4.17;;;12.20;95.40;;;;;;5101291;28;20416;-45
2022/06/01 01:36:07;;;;;;;4.40;4.00;;;12.20;95.40;;;;;;5101107;28;20762;-45
2022/06/01 01:38:53;;;;;;;4.50;4.07;;;12.20;95.30;;;;;;5100209;28;20281;-45
2022/06/01 01:41:38;;;;;;;6.70;4.43;;;12.20;95.40;;;;;;5100768;28;20419;-45
2022/06/01 01:44:30;;;;;;;4.73;4.33;;;12.20;95.40;;;;;;5100783;28;20699;-45
2022/06/01 01:46:58;;;;;;;4.50;4.10;;;12.20;95.50;;;;;;5101226;28;20413;-45
2022/06/01 01:49:30;;;;;;;5.13;4.73;;;12.20;95.60;;;;;;5100858;28;20511;-45
2022/06/01 01:51:58;;;;;;;5.20;4.23;;;12.20;95.70;;;;;;5101049;28;20415;-45
2022/06/01 01:54:48;;;;;;;4.40;4.00;;;12.10;95.80;;;;;;5101037;28;20742;-46
2022/06/01 01:57:41;;;;;;;4.77;4.37;;;12.10;95.80;;;;;;5100645;28;20473;-45
2022/06/01 02:00:07;;;;;;;5.30;4.13;;;12.10;95.90;;;;;;5100818;28;20425;-45
2022/06/01 02:02:53;;;;;;;4.77;4.37;;;12.00;95.90;;;;;;5099911;28;20414;-45
2022/06/01 02:08:23;;;;;;;4.77;4.17;;;11.90;96.00;;;;;;5098774;28;20473;-45
2022/06/01 02:13:34;;;;;;;4.90;4.30;;;11.90;96.20;;;;;;5098422;28;20418;-45
2022/06/01 02:16:00;;;;;;;6.07;4.10;;;11.80;96.20;;;;;;5099594;28;20441;-45
2022/06/01 02:18:31;;;;;;;5.23;4.37;;;11.80;96.50;;;;;;5100109;28;20423;-44
2022/06/01 02:21:01;;;;;;;4.90;4.20;;;11.80;96.90;;;;;;5100025;28;20259;-45
2022/06/01 02:23:31;;;;;;;4.80;4.40;;;11.70;96.90;;;;;;5099166;28;20419;-45
2022/06/01 02:25:59;;;;;;;4.70;4.20;;;11.70;96.90;;;;;;5098790;28;20444;-45
2022/06/01 02:28:25;;;;;;;4.70;4.30;;;11.70;96.90;;;;;;5098915;28;20493;-44
2022/06/01 02:30:51;;;;;;;4.37;3.77;;;11.60;96.80;;;;;;5098784;28;20423;-44
2022/06/01 02:33:20;;;;;;;4.63;4.33;;;11.50;96.90;;;;;;5097027;28;20480;-45
2022/06/01 02:35:49;;;;;;;5.77;4.73;;;11.50;97.00;;;;;;5097944;28;20437;-45
2022/06/01 02:38:20;;;;;;;5.13;4.63;;;11.50;97.00;;;;;;5097964;28;20419;-45
2022/06/01 02:40:46;;;;;;;4.90;4.40;;;11.50;97.20;;;;;;5098111;28;20431;-45
2022/06/01 02:43:13;;;;;;;5.03;4.27;;;11.50;97.40;;;;;;5099032;28;20442;-45
2022/06/01 02:45:39;;;;;;;5.40;4.27;;;11.50;97.50;;;;;;5099635;28;20511;-45
2022/06/01 02:48:06;;;;;;;5.60;4.43;;;11.50;97.60;;;;;;5099225;28;20419;-45
2022/06/01 02:50:33;;;;;;;4.80;4.40;;;11.40;97.70;;;;;;5099704;28;20809;-45
2022/06/01 02:52:59;;;;;;;6.03;4.60;;;11.40;97.70;;;;;;5099516;28;20438;-44
2022/06/01 02:55:26;;;;;;;4.90;4.40;;;11.40;97.80;;;;;;5099488;28;20419;-44
2022/06/01 02:57:52;;;;;;;6.30;5.33;;;11.50;98.10;;;;;;5099887;28;20835;-44
2022/06/01 03:00:23;;;;;;;4.93;4.43;;;11.50;98.30;;;;;;5097481;28;20462;-45
2022/06/01 03:02:51;;;;;;;5.30;4.80;;;11.50;98.30;;;;;;5099078;28;20459;-45
2022/06/01 03:05:19;;;;;;;6.93;4.43;;;11.50;98.30;;;;;;5099127;28;20708;-45
2022/06/01 03:07:45;;;;;;;4.73;4.33;;;11.50;98.10;;;;;;5098885;28;20827;-44
2022/06/01 03:10:11;;;;;;;5.07;4.07;;;11.50;98.00;;;;;;5097350;28;20528;-45
2022/06/01 03:12:38;;;;;;;5.17;4.77;;;11.50;98.00;;;;;;5098667;28;20532;-45
2022/06/01 03:15:06;;;;;;;6.13;4.93;;;11.50;98.10;;;;;;5099042;28;20419;-45
2022/06/01 03:17:32;;;;;;;4.93;4.53;;;11.50;98.10;;;;;;5098488;28;20501;-45
2022/06/01 03:19:58;;;;;;;5.53;4.93;;;11.40;98.00;;;;;;5096387;28;20518;-45
2022/06/01 03:22:23;;;;;;;5.57;4.93;;;11.40;98.00;;;;;;5097354;28;20241;-45
2022/06/01 03:24:49;;;;;;;5.43;4.97;;;11.40;98.00;;;;;;5097670;28;20428;-45
2022/06/01 03:27:15;;;;;;;5.63;4.90;;;11.40;98.00;;;;;;5097525;28;20487;-45
2022/06/01 03:29:41;;;;;;;5.40;4.90;;;11.30;98.00;;;;;;5097172;28;20211;-45
2022/06/01 03:32:07;;;;;;;5.20;4.70;;;11.30;98.00;;;;;;5098537;28;20551;-45
2022/06/01 03:34:33;;;;;;;4.93;4.53;;;11.30;98.10;;;;;;5098677;28;20246;-45
2022/06/01 03:36:58;;;;;;;5.27;4.77;;;11.30;98.10;;;;;;5099199;28;20434;-45
2022/06/01 03:39:25;;;;;;;7.93;4.67;;;11.30;98.00;;;;;;5098534;28;20188;-45
2022/06/01 03:41:50;;;;;;;5.17;4.77;;;11.30;98.10;;;;;;5098066;28;20249;-45
2022/06/01 03:47:05;;;;;;;4.87;4.30;;;11.30;98.10;;;;;;5097870;28;20209;-45
2022/06/01 03:49:32;;;;;;;6.60;5.47;;;11.30;98.20;;;;;;5098687;28;20935;-45
2022/06/01 03:51:58;;;;;;;5.83;5.07;;;11.40;98.40;;;;;;5097671;28;20431;-44
2022/06/01 03:54:24;;;;;;;5.03;4.63;;;11.40;98.50;;;;;;5097947;28;20753;-45
2022/06/01 03:56:50;;;;;;;5.03;4.73;;;11.50;98.60;;;;;;5098517;28;20510;-45
2022/06/01 03:59:15;;;;;;;5.70;5.20;;;11.50;98.60;;;;;;5097140;28;20465;-45
2022/06/01 04:01:41;;;;;;;6.80;4.90;;;11.50;98.60;;;;;;5097158;28;20185;-45
2022/06/01 04:04:06;;;;;;;5.37;4.87;;;11.50;98.70;;;;;;5097462;28;20212;-45
2022/06/01 04:06:32;;;;;;;5.53;5.03;;;11.50;98.60;;;;;;5097094;28;20181;-45
2022/06/01 04:08:58;;;;;;;6.43;5.37;;;11.50;98.50;;;;;;5096703;28;20212;-45
2022/06/01 04:11:23;;;;;;;5.80;5.20;;;11.50;98.50;;;;;;5095701;28;20434;-45
2022/06/01 04:13:49;;;;;;;4.63;4.30;;;11.60;98.60;;;;;;5097839;28;20238;-45
2022/06/01 04:16:18;;;;;;;5.50;5.00;;;11.70;98.60;;;;;;5098300;28;20446;-44
2022/06/01 04:18:47;;;;;;;5.00;4.50;;;11.70;98.60;;;;;;5097729;28;20193;-45
2022/06/01 04:21:20;;;;;;;5.00;4.50;;;11.70;98.50;;;;;;5096944;28;20435;-45
2022/06/01 04:23:47;;;;;;;4.60;4.27;;;11.70;98.50;;;;;;5096785;28;20416;-45
2022/06/01 04:26:16;;;;;;;7.27;5.33;;;11.70;98.60;;;;;;5096752;28;20477;-45
2022/06/01 04:28:44;;;;;;;5.17;4.67;;;11.70;98.50;;;;;;5096444;28;20749;-45
2022/06/01 04:31:10;;;;;;;6.10;5.07;;;11.80;98.50;;;;;;5096243;28;20890;-45
2022/06/01 04:33:38;;;;;;;6.47;5.90;;;11.90;98.50;;;;;;5095482;28;20423;-45
2022/06/01 04:36:04;;;;;;;5.73;5.23;;;11.90;98.30;;;;;;5094589;28;20423;-45
2022/06/01 04:38:30;;;;;;;7.17;5.10;;;12.10;98.60;;;;;;5095529;28;20419;-45
2022/06/01 04:40:56;;;;;;;5.80;5.10;;;12.20;98.10;;;;;;5093804;28;20573;-45
2022/06/01 04:43:22;;;;;;;6.27;5.60;;;12.30;98.00;;;;;;5094967;28;20501;-44
2022/06/01 04:45:52;;;;;;;5.73;5.13;;;12.30;97.90;;;;;;5092008;28;20186;-45
2022/06/01 04:48:18;;;;;;;7.43;5.00;;;12.30;97.90;;;;;;5095633;28;20551;-45
2022/06/01 04:50:44;;;;;;;6.63;5.20;;;12.40;97.90;;;;;;5096802;28;20431;-45
2022/06/01 04:53:15;;;;;;;5.70;5.20;;;12.50;97.80;;;;;;5096857;28;20415;-45
2022/06/01 04:55:42;;;;;;;5.13;4.70;;;12.60;97.70;;;;;;5095494;28;20244;-44
2022/06/01 04:58:07;;;;;;;5.40;4.60;;;12.70;97.70;;;;;;5098302;28;20411;-44
2022/06/01 05:00:33;;;;;;;6.57;4.87;;;12.70;97.60;;;;;;5099466;28;20701;-45
2022/06/01 05:03:00;;;;;;;4.90;4.40;;;12.80;97.70;;;;;;5099102;28;20165;-45
2022/06/01 05:05:26;;;;;;;4.93;4.40;;;12.80;97.40;;;;;;5099021;28;20200;-45
2022/06/01 05:07:51;;;;;;;5.27;4.77;;;12.90;97.30;;;;;;5098846;28;20458;-45
2022/06/01 05:10:17;;;;;;;5.13;4.63;;;13.00;97.30;;;;;;5096433;28;20278;-45
2022/06/01 05:12:43;;;;;;;5.83;4.77;;;13.10;97.20;;;;;;5099465;28;20173;-45
2022/06/01 05:15:09;;;;;;;7.40;6.63;;;13.20;97.20;;;;;;5096019;28;20176;-45
2022/06/01 05:17:34;;;;;;;4.60;4.20;;;13.30;97.00;;;;;;5098525;28;20208;-45
2022/06/01 05:20:01;;;;;;;6.70;4.70;;;13.40;96.80;;;;;;5095565;28;20660;-45
2022/06/01 05:22:26;;;;;;;5.43;4.93;;;13.50;96.60;;;;;;5096044;28;20256;-45
2022/06/01 05:24:52;;;;;;;4.37;3.97;;;13.60;96.30;;;;;;5094352;28;20408;-45
2022/06/01 05:27:17;;;;;;;5.07;4.67;;;13.70;96.10;;;;;;5094596;28;20225;-45
2022/06/01 05:29:43;;;;;;;6.60;5.30;;;13.80;96.00;;;;;;5095898;28;20212;-44
2022/06/01 05:32:11;;;;;;;5.77;5.17;;;13.90;95.90;;;;;;5093178;28;20173;-45
2022/06/01 05:34:36;;;;;;;4.90;4.37;;;14.00;95.70;;;;;;5095482;28;20281;-45
2022/06/01 05:37:02;;;;;;;4.53;4.13;;;14.10;95.80;;;;;;5096279;28;20853;-45
2022/06/01 05:39:28;;;;;;;5.50;4.50;;;14.20;95.90;;;;;;5097124;28;20427;-45
2022/06/01 05:41:54;;;;;;;5.30;4.70;;;14.30;95.60;;;;;;5094404;28;20182;-45
2022/06/01 05:44:19;;;;;;;4.50;4.10;;;14.40;95.50;;;;;;5095222;28;20321;-45
2022/06/01 05:46:45;;;;;;;5.53;5.03;;;14.50;95.30;;;;;;5094145;28;20804;-45
2022/06/01 05:49:13;;;;;;;6.00;4.57;;;14.60;95.20;;;;;;5094665;28;20205;-45
2022/06/01 05:51:39;;;;;;;4.70;4.30;;;14.70;95.00;;;;;;5094851;28;20466;-43
2022/06/01 05:54:04;;;;;;;5.73;5.07;;;14.80;95.00;;;;;;5096771;28;20480;-45
2022/06/01 05:56:30;;;;;;;5.30;4.00;;;14.90;94.80;;;;;;5095567;28;20337;-45
2022/06/01 05:58:56;;;;;;;4.70;4.23;;;15.00;94.80;;;;;;5097041;28;20212;-45
2022/06/01 06:01:22;;;;;;;4.87;4.47;;;15.20;94.80;;;;;;5096171;28;21007;-45
2022/06/01 06:03:48;;;;;;;4.90;4.40;;;15.30;94.40;;;;;;5095953;28;20521;-45
2022/06/01 06:06:17;;;;;;;5.63;5.00;;;15.50;94.20;;;;;;5096188;28;20458;-45
2022/06/01 06:08:51;;;;;;;4.63;4.23;;;15.70;93.80;;;;;;5094943;28;20472;-45
2022/06/01 06:11:18;;;;;;;7.03;4.63;;;15.80;93.70;;;;;;5096599;28;20479;-45
2022/06/01 06:13:46;;;;;;;4.47;4.13;;;16.00;93.30;;;;;;5096671;28;20415;-45
2022/06/01 06:16:14;;;;;;;4.93;4.07;;;16.20;93.10;;;;;;5097119;28;20821;-45
2022/06/01 06:18:40;;;;;;;4.90;4.50;;;16.40;92.80;;;;;;5094756;28;20717;-46
2022/06/01 06:21:06;;;;;;;6.70;4.20;;;16.50;92.70;;;;;;5097926;28;20697;-45
2022/06/01 06:23:33;;;;;;;5.53;4.07;;;16.60;92.40;;;;;;5097359;28;20191;-45
2022/06/01 06:25:59;;;;;;;4.53;3.90;;;16.70;92.20;;;;;;5098426;28;20676;-45
2022/06/01 06:28:25;;;;;;;4.87;4.40;;;16.90;91.90;;;;;;5097098;28;20485;-45
2022/06/01 06:30:51;;;;;;;4.67;4.17;;;17.10;91.50;;;;;;5082665;28;20189;-46
2022/06/01 06:33:17;;;;;;;4.63;4.23;;;17.30;91.30;;;;;;5077966;28;20873;-45
2022/06/01 06:35:43;;;;;;;4.37;3.97;;;17.40;91.10;;;;;;5076365;28;20429;-46
2022/06/01 06:38:08;;;;;;;4.20;3.80;;;17.60;91.00;;;;;;5075808;28;20420;-47
2022/06/01 06:40:34;;;;;;;4.40;3.80;;;17.70;90.60;;;;;;5076845;28;20184;-47
2022/06/01 06:43:00;;;;;;;5.03;3.83;;;17.90;90.30;;;;;;5075840;28;20177;-47
2022/06/01 06:45:25;;;;;;;3.93;3.57;;;18.00;89.60;;;;;;5076293;28;20171;-46
2022/06/01 06:47:51;;;;;;;4.17;3.73;;;18.10;88.90;;;;;;5076584;28;20180;-46
2022/06/01 06:50:19;;;;;;;4.10;3.70;;;18.10;89.10;;;;;;5074745;28;20473;-46
2022/06/01 06:52:44;;;;;;;5.60;4.00;;;18.20;89.10;;;;;;5074735;28;20219;-47
2022/06/01 06:55:10;;;;;;;9.40;3.47;;;18.30;87.90;;;;;;5072805;28;20857;-47
2022/06/01 06:57:36;;;;;;;5.23;3.63;;;18.30;87.50;;;;;;5074114;28;20209;-47
2022/06/01 07:00:05;;;;;;;7.20;3.90;;;18.50;87.50;;;;;;5072516;28;20472;-46
2022/06/01 07:02:31;;;;;;;6.10;3.97;;;18.60;87.10;;;;;;5074873;28;20513;-45
2022/06/01 07:04:57;;;;;;;4.40;4.00;;;18.90;86.20;;;;;;5075477;28;20503;-44
2022/06/01 07:07:22;;;;;;;3.90;3.57;;;19.10;84.30;;;;;;5075855;28;20310;-46
2022/06/01 07:09:48;;;;;;;5.10;3.47;;;19.30;82.50;;;;;;5074158;28;20276;-43
2022/06/01 07:12:14;;;;;;;5.67;3.40;;;19.40;81.90;;;;;;5075924;28;20527;-44
2022/06/01 07:14:39;;;;;;;3.40;3.10;;;19.60;81.20;;;;;;5075844;28;20280;-44
2022/06/01 07:17:05;;;;;;;4.83;4.00;;;19.70;80.80;;;;;;5075514;28;20206;-46
2022/06/01 07:19:31;;;;;;;6.63;3.97;;;19.90;79.70;;;;;;5075352;28;20261;-44
2022/06/01 07:21:57;;;;;;;4.00;3.10;;;20.00;79.60;;;;;;5073231;28;20432;-43
2022/06/01 07:24:23;;;;;;;3.93;3.63;;;20.10;77.80;;;;;;5074500;28;20194;-44
2022/06/01 07:26:49;;;;;;;11.10;4.67;;;20.40;77.20;;;;;;5074774;28;20597;-44
2022/06/01 07:29:18;;;;;;;4.33;3.57;;;20.60;77.20;;;;;;5075658;28;20542;-43
2022/06/01 07:31:44;;;;;;;3.43;3.13;;;20.80;75.70;;;;;;5073844;28;20444;-45
2022/06/01 07:34:10;;;;;;;4.20;3.43;;;21.00;72.30;;;;;;5074985;28;20423;-44
2022/06/01 07:36:36;;;;;;;2.93;2.63;;;21.20;70.40;;;;;;5076253;28;20440;-45
2022/06/01 07:44:38;;;;;;;3.13;2.60;;;21.50;64.60;;;;;;5074684;28;20438;-46
2022/06/01 07:47:04;;;;;;;3.80;3.20;;;21.50;64.30;;;;;;5074251;28;20728;-44
2022/06/01 07:49:30;;;;;;;3.43;2.90;;;21.60;64.00;;;;;;5075692;28;20465;-49
2022/06/01 07:51:55;;;;;;;3.43;3.13;;;21.70;63.10;;;;;;5075492;28;20431;-47
2022/06/01 07:54:21;;;;;;;3.20;2.90;;;22.00;63.00;;;;;;5074983;28;20254;-46
2022/06/01 07:56:47;;;;;;;3.27;3.00;;;22.30;62.10;;;;;;5074552;28;20175;-45
2022/06/01 07:59:13;;;;;;;2.60;2.40;;;22.60;60.90;;;;;;5074561;28;20519;-47
2022/06/01 08:01:39;;;;;;;4.93;3.10;;;22.80;58.40;;;;;;5075440;28;20241;-48
2022/06/01 08:04:06;;;;;;;3.43;3.10;;;23.00;59.20;;;;;;5074089;28;20430;-48
2022/06/01 08:06:33;;;;;;;7.90;2.83;;;23.10;58.50;;;;;;5073762;28;20512;-49
2022/06/01 08:08:59;;;;;;;4.83;3.03;;;23.20;58.40;;;;;;5073778;28;20470;-45
2022/06/01 08:14:11;;;;;;;3.67;2.50;;;23.20;57.00;;;;;;5073785;28;20522;-44
2022/06/01 08:16:38;;;;;;;3.40;2.40;;;23.40;55.40;;;;;;5073655;28;20414;-47
2022/06/01 08:19:08;;;;;;;3.00;2.70;;;23.50;55.20;;;;;;5075065;28;20443;-47
2022/06/01 08:21:35;;;;;;;3.27;2.47;;;23.70;55.70;;;;;;5074207;28;20434;-45
2022/06/01 08:24:01;;;;;;;3.63;2.70;;;24.00;54.30;;;;;;5073864;28;20721;-46
2022/06/01 08:26:27;;;;;;;11.50;3.97;;;24.40;51.10;;;;;;5074569;28;20775;-46
2022/06/01 08:28:53;;;;;;;3.97;2.83;;;24.60;51.00;;;;;;5074078;28;20577;-45
2022/06/01 08:31:18;;;;;;;2.47;2.10;;;24.90;49.60;;;;;;5073195;28;20278;-46
2022/06/01 08:33:44;;;;;;;2.87;2.30;;;25.00;48.90;;;;;;5073297;28;20186;-49
2022/06/01 08:36:10;;;;;;;3.00;2.40;;;25.00;45.80;;;;;;5072264;28;20462;-46
2022/06/01 08:38:35;;;;;;;2.33;2.10;;;24.90;44.30;;;;;;5073351;28;20182;-45
2022/06/01 08:41:01;;;;;;;4.13;2.10;;;24.80;43.80;;;;;;5073816;28;20457;-47
2022/06/01 08:43:30;;;;;;;1.80;1.60;;;24.30;42.70;;;;;;5075698;28;20177;-45
2022/06/01 08:46:00;;;;;;;2.83;2.20;;;24.30;42.10;;;;;;5073633;28;20222;-48
2022/06/01 08:48:33;;;;;;;3.33;2.60;;;24.30;42.90;;;;;;5074614;28;20492;-50
2022/06/01 08:50:58;;;;;;;3.00;2.00;;;24.90;43.50;;;;;;5075752;28;20434;-49
2022/06/01 08:53:24;;;;;;;2.57;2.00;;;25.20;43.20;;;;;;5074705;28;20744;-44
2022/06/01 08:55:49;;;;;;;2.10;1.90;;;25.20;43.20;;;;;;5076436;28;20204;-45
2022/06/01 08:58:21;;;;;;;3.00;2.27;;;25.20;41.90;;;;;;5076761;28;20483;-45
2022/06/01 09:00:59;;;;;;;2.60;2.40;;;25.40;42.00;;;;;;5076422;28;20182;-48
2022/06/01 09:03:45;;;;;;;3.00;1.97;;;25.80;41.20;;;;;;5074195;28;20423;-47
2022/06/01 09:06:32;;;;;;;2.30;2.03;;;25.80;39.90;;;;;;5074761;28;20432;-48
2022/06/01 09:09:06;;;;;;;2.43;2.00;;;25.80;39.40;;;;;;5058011;28;20478;-48
2022/06/01 09:11:36;;;;;;;2.23;1.80;;;26.10;39.00;;;;;;5076020;28;20680;-47
2022/06/01 09:14:20;;;;;;;3.30;1.93;;;26.70;38.00;;;;;;5074279;28;20452;-48
2022/06/01 09:16:51;;;;;;;3.03;2.20;;;27.20;37.10;;;;;;5074461;28;20419;-47
2022/06/01 09:19:23;;;;;;;2.63;1.70;;;27.40;36.70;;;;;;5074876;28;20402;-46
2022/06/01 09:24:40;;;;;;;1.90;1.67;;;26.90;36.70;;;;;;5072272;28;20422;-50
2022/06/01 09:27:12;;;;;;;2.73;1.80;;;27.00;36.30;;;;;;5069636;28;20486;-46
2022/06/01 09:29:48;;;;;;;2.23;1.93;;;27.30;34.60;;;;;;5070969;28;20760;-48
2022/06/01 09:32:30;;;;;;;2.07;1.87;;;27.70;33.90;;;;;;5071834;28;20684;-48
2022/06/01 09:35:11;;;;;;;1.50;1.40;;;28.00;33.40;;;;;;5071987;28;20410;-46
2022/06/01 09:37:46;;;;;;;2.80;1.70;;;28.30;33.00;;;;;;5074669;28;20415;-46
2022/06/01 09:40:25;;;;;;;3.20;2.00;;;28.50;31.80;;;;;;5072604;28;20492;-47
2022/06/01 09:42:53;;;;;;;2.47;1.70;;;28.40;32.10;;;;;;5076289;28;20423;-48
2022/06/01 09:45:26;;;;;;;4.83;1.50;;;28.00;32.40;;;;;;5077232;28;20455;-44
2022/06/01 09:47:53;;;;;;;2.27;1.70;;;27.30;32.10;;;;;;5077428;28;20522;-48
2022/06/01 09:50:18;;;;;;;1.50;1.40;;;26.70;33.00;;;;;;5075350;28;20771;-45
2022/06/01 09:52:44;;;;;;;3.50;2.67;;;26.60;33.10;;;;;;5076001;28;20475;-45
2022/06/01 09:55:21;;;;;;;2.07;1.67;;;26.20;33.40;;;;;;5074510;28;20204;-44
2022/06/01 10:06:05;;;;;;;3.30;1.70;;;25.80;33.40;;;;;;5075555;28;20173;-44
2022/06/01 10:06:50;;;;;;;2.17;1.60;;;26.10;34.60;;;;;;5073696;28;20422;-50
2022/06/01 10:09:22;;;;;;;2.63;1.67;;;26.40;33.70;;;;;;5073836;28;20470;-48
2022/06/01 10:11:51;;;;;;;2.30;1.70;;;26.30;33.40;;;;;;5074121;28;20426;-46
2022/06/01 10:14:50;;;;;;;1.90;1.70;;;25.80;33.00;;;;;;5073244;28;20418;-47
2022/06/01 10:17:37;;;;;;;2.40;1.67;;;25.80;33.70;;;;;;5074203;28;20414;-45
2022/06/01 10:20:18;;;;;;;3.53;1.53;;;25.80;34.00;;;;;;5072326;28;20465;-47
2022/06/01 10:22:59;;;;;;;3.33;1.73;;;26.40;33.80;;;;;;5068928;28;20856;-46
2022/06/01 10:25:30;;;;;;;3.67;2.13;;;26.60;33.40;;;;;;5073460;28;20488;-46
2022/06/01 10:28:22;;;;;;;1.60;1.40;;;26.90;33.00;;;;;;5074780;28;20491;-46
2022/06/01 10:30:53;;;;;;;2.60;1.77;;;26.90;32.60;;;;;;5072506;28;20444;-46
2022/06/01 10:33:29;;;;;;;3.40;1.93;;;27.20;32.80;;;;;;5076073;28;20409;-46
2022/06/01 10:36:12;;;;;;;2.10;1.53;;;27.60;32.50;;;;;;5076892;28;20423;-48
2022/06/01 10:38:43;;;;;;;2.60;1.57;;;27.80;31.50;;;;;;5077600;28;20415;-46
2022/06/01 10:41:28;;;;;;;3.13;1.77;;;28.00;31.70;;;;;;5076728;28;20434;-48
2022/06/01 10:43:59;;;;;;;1.73;1.63;;;28.30;32.30;;;;;;5076618;28;20886;-47
2022/06/01 10:46:28;;;;;;;2.20;1.40;;;28.60;31.80;;;;;;5075744;28;20416;-49
2022/06/01 10:49:26;;;;;;;3.93;1.90;;;28.80;31.80;;;;;;5074631;28;20845;-46
2022/06/01 10:52:06;;;;;;;2.50;1.83;;;28.90;31.00;;;;;;5074085;28;20379;-46
2022/06/01 10:54:43;;;;;;;3.83;1.70;;;28.50;31.30;;;;;;5072712;28;20419;-49
2022/06/01 10:57:11;;;;;;;2.67;1.60;;;28.30;31.20;;;;;;5075928;28;20524;-47
2022/06/01 10:59:38;;;;;;;2.63;1.90;;;28.40;30.90;;;;;;5074369;28;20414;-47
2022/06/01 11:02:16;;;;;;;3.20;1.30;;;28.50;31.10;;;;;;5074268;28;20416;-46
2022/06/01 11:04:55;;;;;;;1.93;1.83;;;28.60;31.10;;;;;;5073762;28;20495;-47
2022/06/01 11:07:41;;;;;;;2.20;1.70;;;28.70;31.10;;;;;;5073095;28;20779;-47
2022/06/01 11:10:28;;;;;;;2.17;1.97;;;29.00;30.90;;;;;;5072971;28;20452;-45
2022/06/01 11:13:25;;;;;;;1.80;1.70;;;29.10;30.40;;;;;;5074870;28;20800;-46
2022/06/01 11:16:14;;;;;;;2.50;2.03;;;29.20;30.50;;;;;;5094116;28;20443;-48
2022/06/01 11:18:57;;;;;;;1.70;1.43;;;29.30;29.80;;;;;;5076450;28;20999;-45
2022/06/01 11:21:42;;;;;;;1.87;1.50;;;29.50;29.40;;;;;;5075292;28;20423;-48
2022/06/01 11:24:36;;;;;;;3.90;1.90;;;29.50;29.70;;;;;;5079836;28;20464;-48
2022/06/01 11:27:11;;;;;;;3.90;3.50;;;29.70;28.90;;;;;;5088208;28;20468;-47
2022/06/01 11:29:58;;;;;;;3.90;3.00;;;29.80;29.00;;;;;;5091629;28;20466;-46
2022/06/01 11:32:42;;;;;;;2.47;2.27;;;30.00;29.20;;;;;;5090233;28;20401;-45
2022/06/01 11:35:36;;;;;;;3.23;2.03;;;29.60;29.00;;;;;;5091579;28;20419;-47
2022/06/01 11:38:17;;;;;;;2.63;2.10;;;29.50;29.50;;;;;;5092791;28;20415;-46
2022/06/01 11:41:38;;;;;;;2.27;2.07;;;29.60;29.80;;;;;;5093856;28;20426;-47
2022/06/01 11:44:19;;;;;;;2.43;1.67;;;30.00;28.90;;;;;;5079525;28;20898;-47
2022/06/01 11:46:53;;;;;;;1.80;1.60;;;30.20;28.80;;;;;;5074043;28;20579;-48
2022/06/01 11:49:33;;;;;;;2.60;1.30;;;30.10;29.20;;;;;;5092241;28;20471;-46
2022/06/01 11:52:22;;;;;;;3.10;2.40;;;29.60;28.80;;;;;;5092669;28;20439;-46
2022/06/01 11:55:16;;;;;;;3.37;1.90;;;28.90;29.40;;;;;;5092395;28;20698;-45
2022/06/01 11:57:44;;;;;;;2.00;1.80;;;28.90;29.60;;;;;;5092916;28;20447;-46
2022/06/01 12:00:21;;;;;;;2.27;1.70;;;28.70;29.70;;;;;;5089693;28;20419;-50
2022/06/01 12:02:50;;;;;;;2.10;1.83;;;28.70;29.80;;;;;;5090865;28;20558;-43
2022/06/01 12:05:32;;;;;;;3.20;1.70;;;29.20;29.90;;;;;;5090829;28;20824;-47
2022/06/01 12:08:03;;;;;;;3.87;2.00;;;29.90;29.50;;;;;;5074771;28;20896;-45
2022/06/01 12:10:54;;;;;;;2.03;1.80;;;31.20;29.10;;;;;;5074247;28;20763;-48
2022/06/01 12:13:24;;;;;;;1.93;1.63;;;33.10;28.30;;;;;;5092957;28;20852;-47
2022/06/01 12:16:06;;;;;;;2.90;2.60;;;34.80;27.20;;;;;;5092524;28;20514;-50
2022/06/01 12:18:33;;;;;;;4.03;3.20;;;36.00;26.50;;;;;;5092292;28;20832;-45
2022/06/01 12:21:16;;;;;;;2.80;1.90;;;36.50;26.00;;;;;;5090242;28;20679;-47
2022/06/01 12:28:31;;;;;;;2.60;2.40;;;38.30;24.90;;;;;;5091161;28;20761;-48
2022/06/01 12:29:59;;;;;;;2.40;2.17;;;37.30;24.80;;;;;;5092798;28;20798;-45
2022/06/01 12:32:25;;;;;;;3.80;3.50;;;35.50;25.30;;;;;;5090989;28;20410;-45
2022/06/01 12:34:58;;;;;;;6.90;6.30;;;34.20;26.00;;;;;;5089904;28;20417;-45
2022/06/01 12:37:38;;;;;;;7.77;7.07;;;33.20;26.60;;;;;;5091790;28;20412;-48
2022/06/01 12:40:12;;;;;;;4.13;3.53;;;32.50;27.10;;;;;;5090109;28;20430;-45
2022/06/01 12:43:00;;;;;;;2.53;2.10;;;32.00;27.70;;;;;;5092091;28;20394;-47
2022/06/01 12:45:39;;;;;;;4.90;2.73;;;32.20;27.90;;;;;;5093662;28;20508;-48
2022/06/01 12:48:07;;;;;;;8.13;2.07;;;32.40;27.90;;;;;;5094175;28;20609;-46
2022/06/01 12:50:52;;;;;;;3.57;2.20;;;32.80;27.60;;;;;;5095434;28;20481;-45
2022/06/01 12:53:23;;;;;;;2.83;2.00;;;32.30;27.70;;;;;;5095677;28;20389;-45
2022/06/01 12:56:07;;;;;;;2.40;2.20;;;32.00;28.00;;;;;;5096265;28;20712;-48
2022/06/01 12:58:35;;;;;;;2.20;2.00;;;31.40;28.50;;;;;;5094777;28;20396;-45
2022/06/01 13:01:00;;;;;;;2.30;2.00;;;31.00;28.80;;;;;;5092060;28;20587;-47
2022/06/01 13:03:29;;;;;;;2.50;2.30;;;31.00;29.00;;;;;;5095039;28;20480;-51
2022/06/01 13:05:58;;;;;;;5.57;2.20;;;30.90;29.00;;;;;;5093876;28;20445;-46
2022/06/01 13:08:28;;;;;;;2.17;1.97;;;31.80;29.10;;;;;;5092282;28;20522;-46
2022/06/01 13:10:54;;;;;;;3.03;2.70;;;33.00;28.60;;;;;;5088549;28;21085;-49
2022/06/01 13:13:27;;;;;;;2.40;2.20;;;33.40;27.70;;;;;;5093303;28;20549;-44
2022/06/01 13:16:04;;;;;;;3.10;2.60;;;33.30;27.90;;;;;;5092956;28;20860;-48
2022/06/01 13:18:38;;;;;;;3.53;2.13;;;32.80;28.20;;;;;;5093908;28;20442;-45
2022/06/01 13:21:28;;;;;;;5.40;2.50;;;32.20;28.50;;;;;;5094603;28;20408;-48
2022/06/01 13:23:58;;;;;;;4.17;3.77;;;31.90;28.60;;;;;;5067629;28;20424;-47
2022/06/01 13:26:51;;;;;;;3.43;2.40;;;32.60;28.50;;;;;;5075542;28;20498;-46
2022/06/01 13:29:23;;;;;;;4.77;2.33;;;33.50;28.30;;;;;;5067087;28;20542;-47
2022/06/01 13:31:54;;;;;;;3.70;2.80;;;34.80;27.40;;;;;;5090474;28;20443;-46
2022/06/01 13:34:38;;;;;;;3.20;2.33;;;34.50;27.30;;;;;;5097497;28;20410;-46
2022/06/01 13:37:19;;;;;;;2.40;2.20;;;34.60;27.40;;;;;;5096731;28;20401;-47
2022/06/01 13:40:08;;;;;;;2.57;2.37;;;34.40;27.30;;;;;;5097175;28;20730;-44